createdAt,value
2023-01-06T00:00:40.868Z,101813.72
2023-01-06T00:03:09.236Z,101810.88
2023-01-06T00:05:36.158Z,101817.09
2023-01-06T00:08:02.985Z,101809.91
2023-01-06T00:10:29.772Z,101813.31
2023-01-06T00:12:56.273Z,101796.41
2023-01-06T00:15:22.861Z,101799.06
2023-01-06T00:17:49.413Z,101794.66
2023-01-06T00:20:15.989Z,101791.88
2023-01-06T00:22:42.838Z,101789.19
2023-01-06T00:25:12.783Z,101787.38
2023-01-06T00:27:39.929Z,101786.50
2023-01-06T00:30:08.210Z,101791.88
2023-01-06T00:32:35.418Z,101791.88
2023-01-06T00:35:02.714Z,101789.19
2023-01-06T00:37:29.348Z,101786.50
2023-01-06T00:39:55.829Z,101790.03
2023-01-06T00:42:22.768Z,101793.72
2023-01-06T00:44:49.768Z,101796.50
2023-01-06T00:47:16.747Z,101793.81
2023-01-06T00:49:43.305Z,101781.25
2023-01-06T00:52:10.112Z,101780.41
2023-01-06T00:54:39.651Z,101792.97
2023-01-06T00:57:07.586Z,101784.94
2023-01-06T00:59:34.625Z,101784.09
2023-01-06T01:02:01.612Z,101788.47
2023-01-06T01:04:29.122Z,101791.03
2023-01-06T01:06:56.233Z,101788.47
2023-01-06T01:09:25.554Z,101786.63
2023-01-06T01:12:12.054Z,101775.06
2023-01-06T01:14:49.918Z,101778.88
2023-01-06T01:17:19.774Z,101778.72
2023-01-06T01:19:47.427Z,101771.53
2023-01-06T01:22:14.291Z,101767.16
2023-01-06T01:24:40.975Z,101762.63
2023-01-06T01:27:07.567Z,101762.63
2023-01-06T01:29:34.132Z,101770.53
2023-01-06T01:32:01.096Z,101759.72
2023-01-06T01:34:28.016Z,101761.41
2023-01-06T01:36:55.332Z,101755.06
2023-01-06T01:39:28.705Z,101753.34
2023-01-06T01:41:57.127Z,101753.09
2023-01-06T01:45:01.548Z,101750.56
2023-01-06T01:47:37.426Z,101743.22
2023-01-06T01:50:14.281Z,101743.22
2023-01-06T01:52:45.149Z,101745.78
2023-01-06T01:55:13.447Z,101744.81
2023-01-06T01:57:49.023Z,101739.44
2023-01-06T02:00:17.404Z,101731.41
2023-01-06T02:02:44.455Z,101723.47
2023-01-06T02:05:13.914Z,101723.47
2023-01-06T02:07:41.073Z,101710.22
2023-01-06T02:10:07.539Z,101709.22
2023-01-06T02:12:34.324Z,101719.09
2023-01-06T02:15:00.876Z,101712.91
2023-01-06T02:18:04.632Z,101716.69
2023-01-06T02:20:45.822Z,101714.84
2023-01-06T02:23:34.012Z,101710.34
2023-01-06T02:26:09.481Z,101689.88
2023-01-06T02:28:54.534Z,101683.53
2023-01-06T02:31:24.008Z,101689.88
2023-01-06T02:33:50.463Z,101693.53
2023-01-06T02:36:16.894Z,101684.66
2023-01-06T02:39:05.125Z,101676.00
2023-01-06T02:41:54.635Z,101684.19
2023-01-06T02:44:30.874Z,101678.69
2023-01-06T02:47:27.277Z,101668.97
2023-01-06T02:50:07.479Z,101668.13
2023-01-06T02:53:13.686Z,101664.69
2023-01-06T02:55:52.379Z,101655.56
2023-01-06T02:58:42.430Z,101660.06
2023-01-06T03:01:24.423Z,101651.28
2023-01-06T03:03:53.207Z,101637.88
2023-01-06T03:06:26.442Z,101632.53
2023-01-06T03:08:55.243Z,101628.88
2023-01-06T03:11:22.989Z,101618.13
2023-01-06T03:13:55.441Z,101613.75
2023-01-06T03:16:22.162Z,101617.28
2023-01-06T03:18:51.100Z,101621.81
2023-01-06T03:21:21.404Z,101616.44
2023-01-06T03:23:48.052Z,101612.06
2023-01-06T03:26:15.159Z,101606.72
2023-01-06T03:28:41.677Z,101606.72
2023-01-06T03:31:16.637Z,101605.88
2023-01-06T03:34:00.792Z,101600.50
2023-01-06T03:36:52.218Z,101594.16
2023-01-06T03:39:26.345Z,101582.59
2023-01-06T03:42:43.703Z,101576.50
2023-01-06T03:45:38.492Z,101570.03
2023-01-06T03:48:18.031Z,101566.50
2023-01-06T03:51:07.243Z,101563.09
2023-01-06T03:53:50.543Z,101558.59
2023-01-06T03:56:21.563Z,101564.69
2023-01-06T03:58:53.340Z,101563.00
2023-01-06T04:01:21.167Z,101564.69
2023-01-06T04:03:48.585Z,101569.19
2023-01-06T04:06:15.125Z,101551.28
2023-01-06T04:08:41.700Z,101562.00
2023-01-06T04:11:08.220Z,101547.75
2023-01-06T04:13:34.708Z,101562.84
2023-01-06T04:16:01.222Z,101551.28
2023-01-06T04:18:27.723Z,101542.25
2023-01-06T04:20:54.196Z,101544.91
2023-01-06T04:23:20.733Z,101549.44
2023-01-06T04:25:47.274Z,101542.38
2023-01-06T04:28:13.821Z,101551.28
2023-01-06T04:30:40.309Z,101548.44
2023-01-06T04:33:06.804Z,101528.13
2023-01-06T04:35:33.307Z,101532.50
2023-01-06T04:38:02.453Z,101537.88
2023-01-06T04:40:28.958Z,101523.63
2023-01-06T04:43:04.631Z,101521.94
2023-01-06T04:45:31.431Z,101515.84
2023-01-06T04:47:57.982Z,101513.16
2023-01-06T04:50:24.486Z,101518.38
2023-01-06T04:52:50.973Z,101501.59
2023-01-06T04:55:17.580Z,101496.25
2023-01-06T04:57:44.174Z,101497.09
2023-01-06T05:00:11.310Z,101497.09
2023-01-06T05:02:37.784Z,101499.75
2023-01-06T05:05:04.619Z,101504.13
2023-01-06T05:07:31.162Z,101496.94
2023-01-06T05:09:57.623Z,101496.09
2023-01-06T05:12:24.129Z,101492.56
2023-01-06T05:14:50.617Z,101483.69
2023-01-06T05:17:17.153Z,101481.84
2023-01-06T05:19:44.448Z,101481.84
2023-01-06T05:22:11.812Z,101488.06
2023-01-06T05:24:38.536Z,101475.50
2023-01-06T05:27:05.301Z,101495.13
2023-01-06T05:29:31.944Z,101479.91
2023-01-06T05:31:58.932Z,101487.78
2023-01-06T05:34:25.669Z,101489.47
2023-01-06T05:36:52.253Z,101484.13
2023-01-06T05:39:18.849Z,101493.16
2023-01-06T05:41:45.498Z,101491.31
2023-01-06T05:44:12.034Z,101492.31
2023-01-06T05:46:38.581Z,101498.66
2023-01-06T05:49:05.207Z,101491.47
2023-01-06T05:51:31.796Z,101491.47
2023-01-06T05:53:58.302Z,101496.81
2023-01-06T05:56:24.846Z,101490.72
2023-01-06T05:58:53.397Z,101481.84
2023-01-06T06:01:28.474Z,101495.41
2023-01-06T06:03:55.784Z,101480.16
2023-01-06T06:06:24.217Z,101472.25
2023-01-06T06:08:51.054Z,101484.78
2023-01-06T06:11:19.328Z,101493.72
2023-01-06T06:13:51.087Z,101495.50
2023-01-06T06:16:19.859Z,101496.38
2023-01-06T06:18:53.915Z,101489.44
2023-01-06T06:21:23.122Z,101490.44
2023-01-06T06:23:49.939Z,101489.44
2023-01-06T06:26:16.645Z,101495.66
2023-01-06T06:28:43.227Z,101506.38
2023-01-06T06:31:14.215Z,101504.53
2023-01-06T06:33:41.068Z,101490.28
2023-01-06T06:36:15.580Z,101494.81
2023-01-06T06:38:43.472Z,101514.56
2023-01-06T06:41:10.075Z,101517.09
2023-01-06T06:43:36.890Z,101522.59
2023-01-06T06:46:03.679Z,101528.66
2023-01-06T06:48:30.643Z,101542.91
2023-01-06T06:51:26.617Z,101536.84
2023-01-06T06:53:53.100Z,101550.69
2023-01-06T06:56:21.105Z,101576.50
2023-01-06T06:58:48.234Z,101559.47
2023-01-06T07:01:17.248Z,101561.16
2023-01-06T07:03:44.406Z,101562.84
2023-01-06T07:06:14.304Z,101570.72
2023-01-06T07:08:45.051Z,101569.88
2023-01-06T07:11:11.843Z,101574.28
2023-01-06T07:13:38.397Z,101573.31
2023-01-06T07:16:05.725Z,101582.19
2023-01-06T07:18:32.259Z,101583.03
2023-01-06T07:20:58.820Z,101589.38
2023-01-06T07:23:25.479Z,101594.59
2023-01-06T07:25:56.928Z,101590.09
2023-01-06T07:28:24.625Z,101605.22
2023-01-06T07:30:51.546Z,101602.53
2023-01-06T07:33:19.360Z,101612.28
2023-01-06T07:35:45.924Z,101613.97
2023-01-06T07:38:12.650Z,101617.38
2023-01-06T07:40:39.305Z,101619.06
2023-01-06T07:43:07.983Z,101622.44
2023-01-06T07:45:35.030Z,101624.16
2023-01-06T07:48:02.136Z,101621.50
2023-01-06T07:50:29.247Z,101632.06
2023-01-06T07:53:01.186Z,101639.13
2023-01-06T07:55:28.199Z,101644.38
2023-01-06T07:57:54.775Z,101654.00
2023-01-06T08:00:21.607Z,101653.03
2023-01-06T08:02:48.687Z,101649.38
2023-01-06T08:05:15.279Z,101646.53
2023-01-06T08:07:41.839Z,101666.03
2023-01-06T08:10:08.722Z,101661.53
2023-01-06T08:12:35.942Z,101670.28
2023-01-06T08:15:03.483Z,101666.63
2023-01-06T08:17:30.705Z,101680.88
2023-01-06T08:19:57.563Z,101680.03
2023-01-06T08:22:24.439Z,101680.88
2023-01-06T08:24:50.963Z,101688.09
2023-01-06T08:27:18.245Z,101686.25
2023-01-06T08:29:44.726Z,101703.28
2023-01-06T08:32:11.289Z,101701.59
2023-01-06T08:34:38.246Z,101712.47
2023-01-06T08:37:04.892Z,101718.53
2023-01-06T08:39:31.659Z,101716.84
2023-01-06T08:41:58.166Z,101723.91
2023-01-06T08:44:24.725Z,101730.13
2023-01-06T08:46:51.211Z,101740.84
2023-01-06T08:49:17.743Z,101741.56
2023-01-06T08:51:44.269Z,101749.38
2023-01-06T08:54:10.781Z,101741.19
2023-01-06T08:56:39.306Z,101740.94
2023-01-06T08:59:06.270Z,101754.19
2023-01-06T09:01:35.976Z,101747.88
2023-01-06T09:04:05.666Z,101751.41
2023-01-06T09:06:32.244Z,101745.88
2023-01-06T09:09:00.257Z,101750.16
2023-01-06T09:11:27.287Z,101744.78
2023-01-06T09:13:54.156Z,101749.88
2023-01-06T09:16:21.753Z,101748.19
2023-01-06T09:18:49.963Z,101752.56
2023-01-06T09:21:18.556Z,101757.81
2023-01-06T09:23:45.236Z,101757.81
2023-01-06T09:26:12.450Z,101758.50
2023-01-06T09:28:39.141Z,101757.66
2023-01-06T09:31:05.707Z,101760.22
2023-01-06T09:33:32.319Z,101769.97
2023-01-06T09:35:58.904Z,101779.72
2023-01-06T09:38:26.278Z,101782.25
2023-01-06T09:41:15.062Z,101781.41
2023-01-06T09:44:13.091Z,101792.88
2023-01-06T09:46:43.861Z,101802.38
2023-01-06T09:49:33.593Z,101805.16
2023-01-06T09:52:04.783Z,101820.91
2023-01-06T09:54:52.248Z,101816.38
2023-01-06T09:57:45.812Z,101803.66
2023-01-06T10:00:49.494Z,101799.97
2023-01-06T10:03:19.716Z,101812.88
2023-01-06T10:06:20.587Z,101818.13
2023-01-06T10:08:59.363Z,101818.84
2023-01-06T10:11:32.657Z,101827.50
2023-01-06T10:14:06.879Z,101835.41
2023-01-06T10:16:48.103Z,101829.91
2023-01-06T10:19:36.361Z,101826.34
2023-01-06T10:22:47.912Z,101822.56
2023-01-06T10:25:32.953Z,101833.06
2023-01-06T10:28:19.548Z,101829.53
2023-01-06T10:30:50.462Z,101830.09
2023-01-06T10:35:55.267Z,101827.13
2023-01-06T10:38:37.307Z,101824.59
2023-01-06T10:41:38.012Z,101822.75
2023-01-06T10:44:05.821Z,101825.19
2023-01-06T10:46:36.418Z,101823.34
2023-01-06T10:49:05.307Z,101822.34
2023-01-06T10:51:45.599Z,101811.75
2023-01-06T10:54:18.017Z,101812.47
2023-01-06T10:56:51.298Z,101821.38
2023-01-06T10:59:17.877Z,101828.47
2023-01-06T11:01:58.935Z,101832.09
2023-01-06T11:04:27.934Z,101825.78
2023-01-06T11:06:58.891Z,101839.19
2023-01-06T11:09:25.412Z,101835.53
2023-01-06T11:11:54.223Z,101831.13
2023-01-06T11:14:25.037Z,101838.47
2023-01-06T11:17:16.901Z,101839.59
2023-01-06T11:19:45.665Z,101835.06
2023-01-06T11:22:38.745Z,101843.97
2023-01-06T11:25:20.059Z,101842.84
2023-01-06T11:27:47.790Z,101842.47
2023-01-06T11:30:30.795Z,101835.97
2023-01-06T11:32:57.409Z,101831.19
2023-01-06T11:35:30.244Z,101837.31
2023-01-06T11:38:00.118Z,101831.66
2023-01-06T11:40:29.964Z,101825.16
2023-01-06T11:43:00.008Z,101819.53
2023-01-06T11:45:40.107Z,101824.75
2023-01-06T11:48:26.968Z,101824.91
2023-01-06T11:51:02.271Z,101814.28
2023-01-06T11:53:29.592Z,101810.91
2023-01-06T11:56:06.684Z,101805.66
2023-01-06T11:58:33.147Z,101805.78
2023-01-06T12:01:07.324Z,101797.13
2023-01-06T12:03:41.425Z,101805.16
2023-01-06T12:06:14.038Z,101798.63
2023-01-06T12:08:44.216Z,101800.88
2023-01-06T12:11:18.769Z,101802.00
2023-01-06T12:14:07.980Z,101797.50
2023-01-06T12:16:57.625Z,101791.38
2023-01-06T12:19:45.908Z,101788.59
2023-01-06T12:22:32.971Z,101778.53
2023-01-06T12:25:01.514Z,101785.34
2023-01-06T12:27:34.534Z,101788.19
2023-01-06T12:30:07.501Z,101785.34
2023-01-06T12:32:42.503Z,101783.78
2023-01-06T12:35:16.450Z,101786.19
2023-01-06T12:37:48.997Z,101787.19
2023-01-06T12:40:32.638Z,101790.13
2023-01-06T12:43:16.931Z,101786.75
2023-01-06T12:46:05.065Z,101794.91
2023-01-06T12:48:50.195Z,101801.44
2023-01-06T12:51:23.788Z,101803.13
2023-01-06T12:53:57.970Z,101804.22
2023-01-06T12:57:01.224Z,101802.53
2023-01-06T12:59:56.483Z,101802.09
2023-01-06T13:02:50.619Z,101802.78
2023-01-06T13:05:58.361Z,101795.72
2023-01-06T13:08:34.133Z,101794.72
2023-01-06T13:11:13.440Z,101792.19
2023-01-06T13:13:57.961Z,101794.03
2023-01-06T13:16:38.731Z,101790.34
2023-01-06T13:19:23.453Z,101785.97
2023-01-06T13:21:53.469Z,101791.22
2023-01-06T13:24:41.031Z,101780.72
2023-01-06T13:27:52.684Z,101786.25
2023-01-06T13:30:33.049Z,101783.56
2023-01-06T13:33:22.858Z,101782.72
2023-01-06T13:36:04.662Z,101776.50
2023-01-06T13:38:53.974Z,101780.03
2023-01-06T13:41:26.429Z,101772.13
2023-01-06T13:43:55.107Z,101769.28
2023-01-06T13:46:24.514Z,101779.03
2023-01-06T13:48:55.302Z,101784.41
2023-01-06T13:51:27.035Z,101786.81
2023-01-06T13:53:54.957Z,101776.78
2023-01-06T13:56:21.431Z,101782.91
2023-01-06T13:58:50.890Z,101776.53
2023-01-06T14:01:20.392Z,101789.84
2023-01-06T14:03:49.731Z,101776.13
2023-01-06T14:06:22.290Z,101768.91
2023-01-06T14:08:52.879Z,101771.50
2023-01-06T14:11:28.095Z,101771.34
2023-01-06T14:13:57.803Z,101771.09
2023-01-06T14:16:43.630Z,101776.44
2023-01-06T14:19:52.419Z,101779.84
2023-01-06T14:22:26.130Z,101784.09
2023-01-06T14:25:03.567Z,101786.09
2023-01-06T14:27:45.364Z,101775.94
2023-01-06T14:30:39.249Z,101762.75
2023-01-06T14:33:27.544Z,101768.97
2023-01-06T14:36:03.325Z,101784.09
2023-01-06T14:38:57.713Z,101769.09
2023-01-06T14:41:36.557Z,101770.66
2023-01-06T14:44:13.572Z,101761.91
2023-01-06T14:46:45.484Z,101765.31
2023-01-06T14:49:19.721Z,101766.28
2023-01-06T14:51:47.479Z,101753.88
2023-01-06T14:54:24.475Z,101757.50
2023-01-06T14:56:56.203Z,101757.50
2023-01-06T14:59:23.170Z,101752.97
2023-01-06T15:02:02.331Z,101755.13
2023-01-06T15:04:34.798Z,101762.19
2023-01-06T15:07:19.601Z,101760.47
2023-01-06T15:09:47.975Z,101762.19
2023-01-06T15:12:27.215Z,101761.44
2023-01-06T15:14:54.262Z,101757.91
2023-01-06T15:17:21.393Z,101756.22
2023-01-06T15:19:50.051Z,101753.53
2023-01-06T15:22:23.582Z,101767.97
2023-01-06T15:24:50.294Z,101767.97
2023-01-06T15:27:18.747Z,101772.34
2023-01-06T15:29:55.792Z,101768.06
2023-01-06T15:32:25.963Z,101766.22
2023-01-06T15:34:56.447Z,101764.53
2023-01-06T15:37:25.604Z,101764.69
2023-01-06T15:39:53.478Z,101769.22
2023-01-06T15:42:23.605Z,101766.63
2023-01-06T15:44:56.782Z,101771.31
2023-01-06T15:47:32.412Z,101767.78
2023-01-06T15:50:03.464Z,101765.94
2023-01-06T15:52:36.744Z,101759.84
2023-01-06T15:55:19.439Z,101762.53
2023-01-06T15:57:57.254Z,101764.50
2023-01-06T16:00:26.812Z,101759.97
2023-01-06T16:02:53.706Z,101759.13
2023-01-06T16:05:43.032Z,101758.56
2023-01-06T16:08:24.364Z,101755.03
2023-01-06T16:11:09.408Z,101755.13
2023-01-06T16:13:36.004Z,101762.09
2023-01-06T16:16:33.114Z,101759.81
2023-01-06T16:19:08.848Z,101745.38
2023-01-06T16:21:35.657Z,101743.56
2023-01-06T16:24:05.454Z,101749.06
2023-01-06T16:26:42.459Z,101742.97
2023-01-06T16:29:37.457Z,101748.47
2023-01-06T16:32:33.805Z,101726.16
2023-01-06T16:35:11.782Z,101740.44
2023-01-06T16:37:38.367Z,101745.78
2023-01-06T16:40:05.454Z,101751.31
2023-01-06T16:42:39.951Z,101750.47
2023-01-06T16:45:27.964Z,101744.22
2023-01-06T16:47:55.327Z,101741.41
2023-01-06T16:50:23.358Z,101742.41
2023-01-06T16:53:21.878Z,101741.53
2023-01-06T16:55:53.908Z,101739.59
2023-01-06T16:58:28.349Z,101735.91
2023-01-06T17:00:58.249Z,101741.16
2023-01-06T17:03:37.076Z,101739.44
2023-01-06T17:06:04.374Z,101745.53
2023-01-06T17:08:34.706Z,101742.84
2023-01-06T17:11:06.963Z,101742.00
2023-01-06T17:13:36.431Z,101754.44
2023-01-06T17:16:16.975Z,101740.16
2023-01-06T17:19:23.236Z,101748.47
2023-01-06T17:21:52.758Z,101750.91
2023-01-06T17:24:25.619Z,101752.84
2023-01-06T17:27:02.318Z,101750.16
2023-01-06T17:29:33.279Z,101748.47
2023-01-06T17:32:02.909Z,101750.16
2023-01-06T17:34:33.575Z,101747.63
2023-01-06T17:37:12.335Z,101741.41
2023-01-06T17:39:44.723Z,101748.63
2023-01-06T17:42:11.180Z,101742.25
2023-01-06T17:44:40.243Z,101747.78
2023-01-06T17:47:35.201Z,101741.69
2023-01-06T17:50:23.118Z,101740.69
2023-01-06T17:53:09.796Z,101740.56
2023-01-06T17:55:48.676Z,101741.53
2023-01-06T17:58:22.024Z,101737.16
2023-01-06T18:00:48.666Z,101732.78
2023-01-06T18:03:22.454Z,101731.94
2023-01-06T18:05:49.519Z,101730.34
2023-01-06T18:08:17.111Z,101728.13
2023-01-06T18:10:45.972Z,101727.53
2023-01-06T18:13:18.442Z,101731.19
2023-01-06T18:15:53.322Z,101730.34
2023-01-06T18:18:32.841Z,101730.50
2023-01-06T18:21:05.204Z,101742.09
2023-01-06T18:23:34.515Z,101733.19
2023-01-06T18:26:25.765Z,101729.66
2023-01-06T18:29:17.560Z,101729.91
2023-01-06T18:31:46.256Z,101738.66
2023-01-06T18:34:40.000Z,101739.91
2023-01-06T18:37:06.908Z,101739.66
2023-01-06T18:39:42.832Z,101734.56
2023-01-06T18:42:29.474Z,101729.34
2023-01-06T18:45:02.059Z,101724.81
2023-01-06T18:47:30.413Z,101728.34
2023-01-06T18:50:13.919Z,101719.59
2023-01-06T18:52:46.208Z,101724.09
2023-01-06T18:55:19.496Z,101714.34
2023-01-06T18:57:54.898Z,101712.50
2023-01-06T19:00:41.216Z,101699.38
2023-01-06T19:03:26.394Z,101704.59
2023-01-06T19:05:59.263Z,101700.06
2023-01-06T19:08:35.345Z,101704.59
2023-01-06T19:11:03.650Z,101700.06
2023-01-06T19:13:30.383Z,101701.91
2023-01-06T19:16:02.527Z,101711.78
2023-01-06T19:18:33.970Z,101718.00
2023-01-06T19:21:04.018Z,101712.66
2023-01-06T19:23:32.103Z,101713.50
2023-01-06T19:26:11.970Z,101714.47
2023-01-06T19:28:38.514Z,101707.28
2023-01-06T19:31:05.817Z,101703.75
2023-01-06T19:33:59.405Z,101700.34
2023-01-06T19:36:42.763Z,101697.53
2023-01-06T19:39:36.362Z,101694.97
2023-01-06T19:42:27.069Z,101694.13
2023-01-06T19:44:57.177Z,101686.81
2023-01-06T19:47:31.889Z,101676.19
2023-01-06T19:50:07.038Z,101674.38
2023-01-06T19:52:39.319Z,101686.91
2023-01-06T19:55:30.334Z,101685.13
2023-01-06T19:58:02.434Z,101671.41
2023-01-06T20:00:41.572Z,101681.03
2023-01-06T20:03:42.005Z,101671.16
2023-01-06T20:06:08.543Z,101669.19
2023-01-06T20:08:35.070Z,101672.72
2023-01-06T20:11:01.697Z,101664.53
2023-01-06T20:13:28.200Z,101643.91
2023-01-06T20:15:54.735Z,101667.06
2023-01-06T20:18:21.391Z,101666.09
2023-01-06T20:20:47.883Z,101677.53
2023-01-06T20:23:14.477Z,101679.22
2023-01-06T20:25:41.130Z,101676.44
2023-01-06T20:28:07.955Z,101675.59
2023-01-06T20:30:34.485Z,101678.13
2023-01-06T20:33:02.088Z,101674.44
2023-01-06T20:35:28.847Z,101675.31
2023-01-06T20:37:55.389Z,101670.81
2023-01-06T20:40:21.973Z,101666.28
2023-01-06T20:42:48.527Z,101661.75
2023-01-06T20:45:15.063Z,101657.09
2023-01-06T20:47:43.701Z,101649.91
2023-01-06T20:50:13.647Z,101659.66
2023-01-06T20:52:41.811Z,101658.66
2023-01-06T20:55:09.208Z,101662.06
2023-01-06T20:57:35.822Z,101655.72
2023-01-06T21:00:02.591Z,101663.75
2023-01-06T21:02:29.324Z,101660.94
2023-01-06T21:04:55.915Z,101667.16
2023-01-06T21:07:22.543Z,101669.72
2023-01-06T21:09:49.098Z,101674.22
2023-01-06T21:12:15.646Z,101668.00
2023-01-06T21:14:42.197Z,101667.16
2023-01-06T21:17:08.710Z,101664.75
2023-01-06T21:19:35.343Z,101665.72
2023-01-06T21:22:01.908Z,101657.81
2023-01-06T21:24:28.440Z,101660.66
2023-01-06T21:26:54.939Z,101656.25
2023-01-06T21:29:21.635Z,101649.19
2023-01-06T21:31:48.266Z,101650.28
2023-01-06T21:34:14.795Z,101659.34
2023-01-06T21:36:41.349Z,101653.38
2023-01-06T21:39:09.574Z,101655.22
2023-01-06T21:41:54.871Z,101657.22
2023-01-06T21:44:21.689Z,101659.16
2023-01-06T21:46:48.249Z,101650.41
2023-01-06T21:49:14.857Z,101641.63
2023-01-06T21:51:42.004Z,101642.63
2023-01-06T21:54:08.636Z,101650.69
2023-01-06T21:56:35.780Z,101649.81
2023-01-06T21:59:02.613Z,101636.53
2023-01-06T22:01:29.899Z,101638.38
2023-01-06T22:03:56.541Z,101645.72
2023-01-06T22:06:23.808Z,101636.81
2023-01-06T22:08:53.463Z,101643.16
2023-01-06T22:11:20.216Z,101639.75
2023-01-06T22:13:47.022Z,101644.41
2023-01-06T22:16:13.878Z,101649.78
2023-01-06T22:18:40.762Z,101653.44
2023-01-06T22:21:07.384Z,101657.97
2023-01-06T22:23:34.953Z,101656.38
2023-01-06T22:26:01.524Z,101650.06
2023-01-06T22:28:28.071Z,101655.69
2023-01-06T22:30:55.112Z,101650.31
2023-01-06T22:33:21.880Z,101657.53
2023-01-06T22:35:48.570Z,101651.44
2023-01-06T22:38:15.111Z,101649.59
2023-01-06T22:40:41.670Z,101648.03
2023-01-06T22:43:08.285Z,101649.84
2023-01-06T22:45:35.094Z,101650.84
2023-01-06T22:48:01.679Z,101649.16
2023-01-06T22:50:28.210Z,101652.69
2023-01-06T22:52:56.358Z,101650.97
2023-01-06T22:55:22.935Z,101652.81
2023-01-06T22:57:49.551Z,101650.25
2023-01-06T23:00:18.334Z,101649.41
2023-01-06T23:02:45.050Z,101650.13
2023-01-06T23:05:11.733Z,101649.41
2023-01-06T23:07:42.662Z,101637.84
2023-01-06T23:10:11.471Z,101648.56
2023-01-06T23:12:39.384Z,101641.34
2023-01-06T23:15:07.414Z,101643.06
2023-01-06T23:17:36.305Z,101643.19
2023-01-06T23:20:03.303Z,101635.16
2023-01-06T23:22:29.813Z,101635.28
2023-01-06T23:24:56.308Z,101642.34
2023-01-06T23:27:22.854Z,101632.63
2023-01-06T23:29:49.451Z,101633.56
2023-01-06T23:32:15.989Z,101629.19
2023-01-06T23:34:42.535Z,101639.09
2023-01-06T23:37:09.026Z,101629.34
2023-01-06T23:39:35.533Z,101628.50
2023-01-06T23:42:04.266Z,101633.88
2023-01-06T23:44:30.803Z,101632.13
2023-01-06T23:46:57.326Z,101623.25
2023-01-06T23:49:23.859Z,101622.41
2023-01-06T23:51:50.397Z,101620.56
2023-01-06T23:54:17.073Z,101618.03
2023-01-06T23:56:43.601Z,101625.22
2023-01-06T23:59:12.332Z,101619.97
